Time;durP1;ratioP1;P1;durP2;ratioP2;P2;SDS_P1;SDS_P2;PMS_P1;PMS_P2;Temp;Humidity;BMP_temperature;BMP_pressure;BME280_temperature;BME280_humidity;BME280_pressure;Samples;Min_cycle;Max_cycle;Signal;HPM_P1;HPM_P2
2023/01/31 00:00:56;;;;;;;85.78;23.70;;;;;;;;;;6183234;23;20011;-79
2023/01/31 00:03:21;;;;;;;86.50;23.60;;;;;;;;;;6183792;23;20443;-81
2023/01/31 00:05:47;;;;;;;81.18;22.58;;;;;;;;;;6184003;23;20041;-80
2023/01/31 00:08:14;;;;;;;77.10;20.02;;;;;;;;;;6183675;23;20001;-81
2023/01/31 00:10:40;;;;;;;80.05;22.35;;;;;;;;;;6183827;23;20008;-79
2023/01/31 00:13:05;;;;;;;80.35;22.98;;;;;;;;;;6184055;23;20009;-81
2023/01/31 00:15:30;;;;;;;82.32;23.60;;;;;;;;;;6184055;23;20005;-82
2023/01/31 00:17:56;;;;;;;75.63;21.08;;;;;;;;;;6183440;23;20421;-82
2023/01/31 00:20:21;;;;;;;76.03;20.85;;;;;;;;;;6184204;23;20009;-82
2023/01/31 00:22:47;;;;;;;74.78;21.00;;;;;;;;;;6181864;23;20012;-82
2023/01/31 00:25:12;;;;;;;75.38;22.05;;;;;;;;;;6183982;23;20043;-82
2023/01/31 00:27:38;;;;;;;76.57;20.75;;;;;;;;;;6183957;23;20029;-81
2023/01/31 00:30:04;;;;;;;72.50;19.85;;;;;;;;;;6184066;23;20012;-82
2023/01/31 00:32:29;;;;;;;79.72;21.13;;;;;;;;;;6184418;23;20013;-82
2023/01/31 00:34:55;;;;;;;78.30;19.65;;;;;;;;;;6183639;23;20337;-82
2023/01/31 00:37:20;;;;;;;77.88;21.98;;;;;;;;;;6182249;23;20100;-82
2023/01/31 00:39:46;;;;;;;75.88;21.02;;;;;;;;;;6184193;23;20067;-81
2023/01/31 00:42:11;;;;;;;75.47;22.17;;;;;;;;;;6184456;23;20012;-82
2023/01/31 00:44:36;;;;;;;71.78;19.92;;;;;;;;;;6184406;23;20438;-82
2023/01/31 00:47:02;;;;;;;79.35;21.45;;;;;;;;;;6182696;23;20108;-80
2023/01/31 00:49:27;;;;;;;76.70;22.40;;;;;;;;;;6183789;23;20009;-80
2023/01/31 00:51:53;;;;;;;84.10;22.23;;;;;;;;;;6183440;23;20005;-81
2023/01/31 00:54:18;;;;;;;79.10;21.15;;;;;;;;;;6157791;23;20392;-81
2023/01/31 00:56:44;;;;;;;79.78;23.10;;;;;;;;;;6184064;23;20008;-80
2023/01/31 00:59:09;;;;;;;94.18;24.30;;;;;;;;;;6184103;23;20084;-81
2023/01/31 01:01:35;;;;;;;80.38;21.83;;;;;;;;;;6181844;23;20012;-81
2023/01/31 01:04:01;;;;;;;85.78;23.98;;;;;;;;;;6183686;23;20348;-80
2023/01/31 01:06:26;;;;;;;79.82;23.15;;;;;;;;;;6184311;23;20001;-80
2023/01/31 01:08:52;;;;;;;83.35;24.02;;;;;;;;;;6183954;23;20079;-81
2023/01/31 01:11:19;;;;;;;79.20;23.55;;;;;;;;;;6184918;23;20009;-80
2023/01/31 01:13:45;;;;;;;88.70;23.27;;;;;;;;;;6183913;23;20032;-82
2023/01/31 01:16:14;;;;;;;74.15;21.63;;;;;;;;;;6183918;23;20009;-81
2023/01/31 01:18:40;;;;;;;80.27;22.47;;;;;;;;;;6157559;23;20416;-82
2023/01/31 01:21:09;;;;;;;77.53;22.15;;;;;;;;;;6183180;23;20008;-82
2023/01/31 01:23:35;;;;;;;77.28;22.52;;;;;;;;;;6182209;23;20011;-82
2023/01/31 01:26:01;;;;;;;77.15;22.00;;;;;;;;;;6176481;23;20009;-82
2023/01/31 01:28:26;;;;;;;78.13;22.33;;;;;;;;;;6183985;23;20002;-82
2023/01/31 01:30:51;;;;;;;74.55;20.38;;;;;;;;;;6159434;23;20044;-82
2023/01/31 01:33:17;;;;;;;63.38;18.75;;;;;;;;;;6185166;23;20095;-82
2023/01/31 01:35:42;;;;;;;68.75;18.00;;;;;;;;;;6185119;23;20009;-81
2023/01/31 01:38:08;;;;;;;58.45;19.00;;;;;;;;;;6183962;23;20350;-81
2023/01/31 01:40:35;;;;;;;65.00;19.70;;;;;;;;;;6185970;23;20449;-80
2023/01/31 01:43:01;;;;;;;67.93;19.25;;;;;;;;;;6183616;23;20008;-81
2023/01/31 01:45:27;;;;;;;62.85;17.95;;;;;;;;;;6184100;23;20041;-82
2023/01/31 01:47:58;;;;;;;68.07;19.23;;;;;;;;;;6159434;23;20001;-82
2023/01/31 01:50:28;;;;;;;75.60;18.85;;;;;;;;;;6183589;23;20084;-81
2023/01/31 01:53:09;;;;;;;66.20;19.50;;;;;;;;;;6185461;23;20120;-81
2023/01/31 01:55:41;;;;;;;60.35;18.50;;;;;;;;;;6187604;23;20005;-83
2023/01/31 01:58:28;;;;;;;68.72;19.05;;;;;;;;;;6183948;23;19994;-82
2023/01/31 02:00:53;;;;;;;63.95;18.42;;;;;;;;;;6185294;23;20012;-80
2023/01/31 02:03:19;;;;;;;66.22;16.30;;;;;;;;;;6184014;23;20005;-82
2023/01/31 02:05:46;;;;;;;56.92;16.20;;;;;;;;;;6182690;23;20009;-81
2023/01/31 02:08:16;;;;;;;63.55;16.58;;;;;;;;;;6159885;23;20093;-83
2023/01/31 02:10:55;;;;;;;61.67;17.90;;;;;;;;;;6159262;23;20005;-82
2023/01/31 02:13:21;;;;;;;64.15;18.73;;;;;;;;;;6159014;23;20013;-80
2023/01/31 02:15:46;;;;;;;59.67;16.98;;;;;;;;;;6159172;23;20005;-82
2023/01/31 02:18:12;;;;;;;63.15;17.08;;;;;;;;;;6158811;23;20032;-82
2023/01/31 02:21:02;;;;;;;67.93;19.73;;;;;;;;;;6185264;23;20008;-82
2023/01/31 02:23:46;;;;;;;62.10;21.23;;;;;;;;;;6185529;23;20009;-82
2023/01/31 02:26:33;;;;;;;63.92;17.92;;;;;;;;;;6185937;23;20348;-81
2023/01/31 02:29:26;;;;;;;67.70;19.13;;;;;;;;;;6178246;23;20019;-82
2023/01/31 02:32:09;;;;;;;69.60;19.63;;;;;;;;;;6184998;23;20035;-82
2023/01/31 02:34:58;;;;;;;77.10;21.52;;;;;;;;;;6184513;23;20005;-82
2023/01/31 02:37:51;;;;;;;77.65;20.92;;;;;;;;;;6183720;23;20012;-82
2023/01/31 02:40:52;;;;;;;75.82;21.65;;;;;;;;;;6184588;23;20092;-81
2023/01/31 02:43:19;;;;;;;;;;;;;;;;;;6136043;23;20017;-82
2023/01/31 02:45:58;;;;;;;77.60;21.42;;;;;;;;;;6183756;23;19979;-82
2023/01/31 02:48:55;;;;;;;78.50;23.25;;;;;;;;;;6159224;23;20012;-82
2023/01/31 02:51:40;;;;;;;80.03;24.02;;;;;;;;;;6183280;23;20009;-82
2023/01/31 02:54:12;;;;;;;71.43;21.13;;;;;;;;;;6158546;23;20483;-81
2023/01/31 02:56:38;;;;;;;85.65;21.65;;;;;;;;;;6159190;23;20005;-82
2023/01/31 02:59:08;;;;;;;82.10;23.35;;;;;;;;;;6158246;23;20016;-82
2023/01/31 03:01:39;;;;;;;81.05;21.60;;;;;;;;;;6183665;23;20009;-81
2023/01/31 03:04:07;;;;;;;82.95;23.85;;;;;;;;;;6159130;23;19997;-82
2023/01/31 03:06:35;;;;;;;83.20;23.50;;;;;;;;;;6182194;23;20027;-81
2023/01/31 03:09:06;;;;;;;91.80;26.23;;;;;;;;;;6185010;23;20008;-81
2023/01/31 03:11:58;;;;;;;82.15;22.55;;;;;;;;;;6159497;23;20059;-82
2023/01/31 03:14:31;;;;;;;94.22;24.63;;;;;;;;;;6167256;23;20008;-82
2023/01/31 03:20:09;;;;;;;89.40;23.95;;;;;;;;;;6162965;23;20015;-82
2023/01/31 03:22:40;;;;;;;77.40;20.80;;;;;;;;;;6183800;23;20001;-82
2023/01/31 03:25:06;;;;;;;79.75;19.83;;;;;;;;;;6158464;23;20012;-82
2023/01/31 03:27:33;;;;;;;94.97;24.63;;;;;;;;;;6133714;23;20099;-81
2023/01/31 03:30:04;;;;;;;96.50;25.73;;;;;;;;;;6158386;23;20470;-82
2023/01/31 03:32:35;;;;;;;94.05;26.10;;;;;;;;;;6154938;23;20012;-80
2023/01/31 03:35:01;;;;;;;100.70;25.58;;;;;;;;;;6137493;23;20009;-80
2023/01/31 03:37:43;;;;;;;94.75;24.75;;;;;;;;;;6185444;23;20387;-82
2023/01/31 03:40:20;;;;;;;99.25;27.45;;;;;;;;;;6183001;23;20005;-82
2023/01/31 03:43:07;;;;;;;104.63;26.77;;;;;;;;;;6185067;23;20005;-82
2023/01/31 03:45:53;;;;;;;92.97;23.73;;;;;;;;;;6183766;23;20056;-82
2023/01/31 03:48:21;;;;;;;95.43;25.27;;;;;;;;;;6182595;23;20008;-82
2023/01/31 03:50:50;;;;;;;81.18;23.70;;;;;;;;;;6183409;23;20012;-84
2023/01/31 03:53:17;;;;;;;88.45;24.20;;;;;;;;;;6187335;23;20096;-80
2023/01/31 03:55:50;;;;;;;84.65;24.83;;;;;;;;;;6183124;23;20056;-82
2023/01/31 03:58:16;;;;;;;104.70;28.13;;;;;;;;;;6185116;23;20088;-81
2023/01/31 04:00:42;;;;;;;88.25;26.13;;;;;;;;;;6186770;23;20013;-81
2023/01/31 04:03:15;;;;;;;97.13;26.75;;;;;;;;;;6182977;23;20076;-81
2023/01/31 04:05:40;;;;;;;82.47;24.35;;;;;;;;;;6182687;23;20088;-81
2023/01/31 04:08:06;;;;;;;91.95;25.30;;;;;;;;;;6182046;23;20063;-81
2023/01/31 04:10:32;;;;;;;105.07;27.17;;;;;;;;;;6184610;23;20051;-83
2023/01/31 04:12:58;;;;;;;108.20;30.40;;;;;;;;;;6192534;23;20008;-81
2023/01/31 04:15:23;;;;;;;110.03;29.23;;;;;;;;;;6192399;23;20001;-81
2023/01/31 04:17:49;;;;;;;101.55;27.13;;;;;;;;;;6198595;23;20028;-81
2023/01/31 04:20:14;;;;;;;109.97;27.75;;;;;;;;;;6203041;23;20012;-81
2023/01/31 04:22:40;;;;;;;105.85;28.30;;;;;;;;;;6205847;23;20001;-83
2023/01/31 04:25:06;;;;;;;110.43;30.40;;;;;;;;;;6193196;23;20057;-82
2023/01/31 04:27:32;;;;;;;116.00;29.52;;;;;;;;;;6185922;23;20330;-82
2023/01/31 04:29:57;;;;;;;96.10;28.35;;;;;;;;;;6186149;23;20000;-81
2023/01/31 04:32:22;;;;;;;107.10;30.25;;;;;;;;;;6188514;23;20013;-82
2023/01/31 04:34:48;;;;;;;99.78;28.55;;;;;;;;;;6184009;23;20080;-81
2023/01/31 04:37:14;;;;;;;113.55;32.10;;;;;;;;;;6184442;23;20024;-81
2023/01/31 04:39:39;;;;;;;101.50;30.55;;;;;;;;;;6182798;23;20005;-82
2023/01/31 04:42:05;;;;;;;103.38;28.33;;;;;;;;;;6184130;23;20071;-82
2023/01/31 04:44:30;;;;;;;104.13;30.23;;;;;;;;;;6183939;23;20401;-80
2023/01/31 04:46:56;;;;;;;104.95;29.55;;;;;;;;;;6183986;23;20290;-82
2023/01/31 04:49:21;;;;;;;109.00;30.17;;;;;;;;;;6185649;23;20009;-81
2023/01/31 04:51:46;;;;;;;106.00;30.83;;;;;;;;;;6186972;23;20092;-82
2023/01/31 04:54:12;;;;;;;103.95;31.20;;;;;;;;;;6183964;23;20005;-82
2023/01/31 04:56:38;;;;;;;109.00;29.85;;;;;;;;;;6184280;23;20048;-82
2023/01/31 04:59:03;;;;;;;114.75;34.75;;;;;;;;;;6182710;23;20013;-83
2023/01/31 05:01:29;;;;;;;121.85;33.55;;;;;;;;;;6177292;23;20028;-82
2023/01/31 05:03:55;;;;;;;113.78;30.77;;;;;;;;;;6181874;23;20028;-82
2023/01/31 05:06:21;;;;;;;113.68;31.65;;;;;;;;;;6183743;23;20063;-82
2023/01/31 05:08:47;;;;;;;116.15;33.20;;;;;;;;;;6185751;23;20413;-82
2023/01/31 05:11:12;;;;;;;117.05;32.50;;;;;;;;;;6188118;23;20008;-82
2023/01/31 05:13:38;;;;;;;112.78;32.58;;;;;;;;;;6182119;23;20005;-81
2023/01/31 05:16:07;;;;;;;122.65;33.00;;;;;;;;;;6183859;23;20451;-83
2023/01/31 05:18:34;;;;;;;128.30;32.67;;;;;;;;;;6183903;23;20424;-82
2023/01/31 05:21:01;;;;;;;118.10;34.35;;;;;;;;;;6183884;23;19997;-82
2023/01/31 05:23:27;;;;;;;126.30;33.55;;;;;;;;;;6183385;23;20016;-82
2023/01/31 05:25:53;;;;;;;120.40;33.30;;;;;;;;;;6181276;23;20001;-82
2023/01/31 05:28:19;;;;;;;127.60;33.13;;;;;;;;;;6181581;23;20349;-82
2023/01/31 05:30:44;;;;;;;129.20;36.92;;;;;;;;;;6183960;23;20005;-82
2023/01/31 05:33:22;;;;;;;134.95;38.25;;;;;;;;;;6184691;23;20027;-82
2023/01/31 05:35:47;;;;;;;126.10;35.30;;;;;;;;;;6183447;23;20059;-82
2023/01/31 05:38:13;;;;;;;137.10;37.80;;;;;;;;;;6183771;23;20127;-82
2023/01/31 05:40:38;;;;;;;133.15;36.90;;;;;;;;;;6183661;23;20012;-82
2023/01/31 05:43:04;;;;;;;124.80;36.53;;;;;;;;;;6183618;23;20341;-82
2023/01/31 05:45:30;;;;;;;124.60;35.85;;;;;;;;;;6183712;23;20051;-82
2023/01/31 05:47:56;;;;;;;131.13;36.67;;;;;;;;;;6182823;23;20005;-82
2023/01/31 05:50:21;;;;;;;138.18;37.22;;;;;;;;;;6183291;23;20093;-82
2023/01/31 05:52:54;;;;;;;133.48;37.80;;;;;;;;;;6183454;23;20016;-82
2023/01/31 05:55:21;;;;;;;135.73;39.13;;;;;;;;;;6158812;23;20040;-82
2023/01/31 05:57:47;;;;;;;144.60;40.88;;;;;;;;;;6184194;23;19997;-81
2023/01/31 06:00:13;;;;;;;155.05;45.10;;;;;;;;;;6187027;23;20041;-81
2023/01/31 06:02:41;;;;;;;161.20;48.75;;;;;;;;;;6155573;23;20005;-81
2023/01/31 06:05:07;;;;;;;164.77;49.58;;;;;;;;;;6180073;23;20096;-81
2023/01/31 06:07:33;;;;;;;170.57;48.95;;;;;;;;;;6178803;23;20001;-81
2023/01/31 06:10:00;;;;;;;174.27;48.47;;;;;;;;;;6182981;23;20161;-81
2023/01/31 06:12:27;;;;;;;191.02;51.08;;;;;;;;;;6163120;23;20032;-81
2023/01/31 06:14:53;;;;;;;187.73;53.05;;;;;;;;;;6183023;23;20087;-81
2023/01/31 06:17:28;;;;;;;184.98;51.13;;;;;;;;;;6187976;23;20008;-84
2023/01/31 06:19:56;;;;;;;157.52;43.75;;;;;;;;;;6188308;23;20020;-80
2023/01/31 06:25:51;;;;;;;122.72;35.53;;;;;;;;;;6168465;23;20005;-80
2023/01/31 06:28:27;;;;;;;116.03;34.65;;;;;;;;;;6190736;23;20250;-82
2023/01/31 06:30:53;;;;;;;128.48;38.63;;;;;;;;;;6191467;23;20029;-79
2023/01/31 06:33:19;;;;;;;116.63;33.08;;;;;;;;;;6186114;23;20069;-81
2023/01/31 06:35:44;;;;;;;120.90;33.25;;;;;;;;;;6163695;23;20008;-79
2023/01/31 06:38:16;;;;;;;175.00;45.97;;;;;;;;;;6169350;23;20004;-79
2023/01/31 06:40:51;;;;;;;121.05;32.92;;;;;;;;;;6190968;23;20329;-80
2023/01/31 06:43:18;;;;;;;127.97;41.38;;;;;;;;;;6187679;23;20013;-80
2023/01/31 06:45:44;;;;;;;123.63;40.38;;;;;;;;;;6188031;23;20420;-79
2023/01/31 06:48:11;;;;;;;132.90;43.58;;;;;;;;;;6186417;23;20009;-81
2023/01/31 06:50:36;;;;;;;95.70;29.70;;;;;;;;;;6182762;23;20096;-81
2023/01/31 06:53:02;;;;;;;93.43;31.20;;;;;;;;;;6157087;23;20018;-79
2023/01/31 06:55:39;;;;;;;194.90;67.20;;;;;;;;;;6157549;23;20675;-81
2023/01/31 06:58:06;;;;;;;95.00;28.08;;;;;;;;;;6181821;23;20000;-82
2023/01/31 07:00:32;;;;;;;70.60;22.13;;;;;;;;;;6174940;23;20028;-80
2023/01/31 07:02:57;;;;;;;70.93;23.77;;;;;;;;;;6182448;23;20017;-79
2023/01/31 07:05:22;;;;;;;81.13;24.70;;;;;;;;;;6186664;23;20036;-78
2023/01/31 07:07:48;;;;;;;69.68;23.52;;;;;;;;;;6181430;23;20483;-80
2023/01/31 07:10:17;;;;;;;71.95;23.00;;;;;;;;;;6180436;23;20103;-78
2023/01/31 07:12:42;;;;;;;80.85;24.40;;;;;;;;;;6183868;23;20013;-79
2023/01/31 07:15:10;;;;;;;72.97;22.27;;;;;;;;;;6184761;23;20064;-78
2023/01/31 07:17:40;;;;;;;80.50;26.73;;;;;;;;;;6179941;23;20004;-77
2023/01/31 07:20:06;;;;;;;76.30;26.75;;;;;;;;;;6178811;23;20005;-78
2023/01/31 07:22:31;;;;;;;92.25;26.60;;;;;;;;;;6182264;23;19997;-79
2023/01/31 07:24:58;;;;;;;79.75;24.58;;;;;;;;;;6180918;23;20298;-77
2023/01/31 07:27:23;;;;;;;75.00;23.20;;;;;;;;;;6183225;23;20001;-79
2023/01/31 07:29:49;;;;;;;66.32;20.52;;;;;;;;;;6183922;23;20000;-78
2023/01/31 07:32:14;;;;;;;67.30;22.73;;;;;;;;;;6183265;23;20497;-79
2023/01/31 07:34:40;;;;;;;61.38;21.30;;;;;;;;;;6176235;23;20008;-82
2023/01/31 07:37:05;;;;;;;62.92;22.23;;;;;;;;;;6182236;23;19997;-80
2023/01/31 07:39:31;;;;;;;62.15;22.70;;;;;;;;;;6181526;23;20005;-79
2023/01/31 07:41:56;;;;;;;63.17;22.02;;;;;;;;;;6183333;23;20464;-78
2023/01/31 07:44:32;;;;;;;65.88;23.95;;;;;;;;;;6184577;23;20072;-79
2023/01/31 07:47:01;;;;;;;64.32;22.77;;;;;;;;;;6183576;23;20032;-77
2023/01/31 07:49:26;;;;;;;58.83;22.80;;;;;;;;;;6184103;23;20028;-78
2023/01/31 07:51:55;;;;;;;73.32;22.75;;;;;;;;;;6182771;23;20527;-78
2023/01/31 07:54:21;;;;;;;66.40;23.98;;;;;;;;;;6179823;23;20009;-76
2023/01/31 07:56:46;;;;;;;53.42;20.20;;;;;;;;;;6183024;23;20352;-77
2023/01/31 07:59:12;;;;;;;45.45;18.23;;;;;;;;;;6181502;23;20012;-79
2023/01/31 08:04:22;;;;;;;33.67;13.43;;;;;;;;;;6183042;23;20012;-79
2023/01/31 08:06:48;;;;;;;37.90;13.55;;;;;;;;;;6182615;23;20165;-79
2023/01/31 08:09:13;;;;;;;38.40;13.77;;;;;;;;;;6182563;23;20432;-78
2023/01/31 08:11:39;;;;;;;38.00;15.50;;;;;;;;;;6181708;23;20001;-78
2023/01/31 08:14:07;;;;;;;33.00;13.35;;;;;;;;;;6182172;23;20017;-76
2023/01/31 08:16:33;;;;;;;39.90;15.75;;;;;;;;;;6185375;23;20005;-79
2023/01/31 08:18:58;;;;;;;48.25;18.15;;;;;;;;;;6183828;23;20321;-76
2023/01/31 08:21:24;;;;;;;39.65;13.90;;;;;;;;;;6185528;23;20005;-76
2023/01/31 08:23:49;;;;;;;50.05;19.05;;;;;;;;;;6188622;23;20076;-79
2023/01/31 08:26:16;;;;;;;40.88;16.13;;;;;;;;;;6186853;23;20001;-78
2023/01/31 08:28:42;;;;;;;38.22;15.27;;;;;;;;;;6185003;23;20368;-79
2023/01/31 08:31:15;;;;;;;49.00;18.75;;;;;;;;;;6183365;23;20005;-78
2023/01/31 08:33:41;;;;;;;33.03;13.27;;;;;;;;;;6184105;23;20059;-77
2023/01/31 08:36:15;;;;;;;24.15;10.55;;;;;;;;;;6180298;23;20013;-78
2023/01/31 08:38:41;;;;;;;33.17;13.50;;;;;;;;;;6186071;23;20464;-82
2023/01/31 08:41:06;;;;;;;30.70;13.63;;;;;;;;;;6187492;23;20001;-85
2023/01/31 08:43:31;;;;;;;22.58;11.57;;;;;;;;;;6185639;23;20028;-83
2023/01/31 08:45:57;;;;;;;26.15;12.60;;;;;;;;;;6182600;23;20016;-80
2023/01/31 08:48:22;;;;;;;21.92;10.48;;;;;;;;;;6184226;23;20084;-79
2023/01/31 08:50:48;;;;;;;27.13;12.93;;;;;;;;;;6187391;23;20165;-87
2023/01/31 08:53:13;;;;;;;23.15;11.00;;;;;;;;;;6185720;23;20005;-81
2023/01/31 08:55:39;;;;;;;34.22;16.13;;;;;;;;;;6187508;23;20441;-84
2023/01/31 08:58:04;;;;;;;22.52;11.48;;;;;;;;;;6186202;23;20032;-79
2023/01/31 09:00:30;;;;;;;31.27;12.40;;;;;;;;;;6187792;23;20017;-81
2023/01/31 09:02:57;;;;;;;27.23;12.98;;;;;;;;;;6185540;23;20092;-79
2023/01/31 09:05:24;;;;;;;24.65;11.32;;;;;;;;;;6183677;23;20033;-76
2023/01/31 09:07:49;;;;;;;22.35;10.45;;;;;;;;;;6181554;23;20005;-78
2023/01/31 09:10:26;;;;;;;26.02;11.25;;;;;;;;;;6184208;23;20395;-76
2023/01/31 09:12:52;;;;;;;26.23;10.68;;;;;;;;;;6183279;23;20009;-78
2023/01/31 09:15:23;;;;;;;20.25;10.38;;;;;;;;;;6184385;23;20540;-77
2023/01/31 09:17:49;;;;;;;33.55;12.18;;;;;;;;;;6183737;23;20088;-80
2023/01/31 09:20:15;;;;;;;20.70;10.48;;;;;;;;;;6188722;23;20001;-79
2023/01/31 09:22:40;;;;;;;18.88;9.32;;;;;;;;;;6182464;23;20174;-78
2023/01/31 09:25:07;;;;;;;18.63;9.82;;;;;;;;;;6183753;23;20029;-77
2023/01/31 09:27:32;;;;;;;20.17;10.35;;;;;;;;;;6183743;23;20510;-78
2023/01/31 09:29:59;;;;;;;20.75;10.43;;;;;;;;;;6187679;23;20005;-78
2023/01/31 09:32:24;;;;;;;21.33;9.98;;;;;;;;;;6190123;23;20064;-77
2023/01/31 09:34:50;;;;;;;22.02;10.35;;;;;;;;;;6185091;23;20005;-79
2023/01/31 09:37:21;;;;;;;19.70;9.38;;;;;;;;;;6192709;23;20065;-90
2023/01/31 09:39:49;;;;;;;31.50;14.02;;;;;;;;;;6190873;23;20028;-79
2023/01/31 09:42:41;;;;;;;52.05;23.65;;;;;;;;;;6189964;23;20084;-81
2023/01/31 09:45:18;;;;;;;39.75;19.25;;;;;;;;;;6144807;23;20009;-90
2023/01/31 09:47:54;;;;;;;17.27;9.32;;;;;;;;;;6188567;23;20005;-85
2023/01/31 09:50:21;;;;;;;21.85;8.82;;;;;;;;;;6196406;23;20009;-84
2023/01/31 09:52:47;;;;;;;30.88;13.65;;;;;;;;;;6194618;23;20017;-84
2023/01/31 09:55:17;;;;;;;20.33;8.77;;;;;;;;;;6172791;23;20009;-86
2023/01/31 09:58:13;;;;;;;19.85;9.95;;;;;;;;;;6198589;23;20025;-84
2023/01/31 10:00:45;;;;;;;20.30;9.70;;;;;;;;;;6183079;23;20424;-81
2023/01/31 10:03:30;;;;;;;22.48;10.60;;;;;;;;;;6183985;23;20197;-82
2023/01/31 10:06:34;;;;;;;17.83;9.77;;;;;;;;;;6182215;23;20008;-80
2023/01/31 10:09:37;;;;;;;18.10;7.80;;;;;;;;;;6161903;23;20036;-80
2023/01/31 10:12:12;;;;;;;21.27;8.73;;;;;;;;;;6187064;23;20009;-82
2023/01/31 10:14:56;;;;;;;18.55;10.05;;;;;;;;;;6193114;23;20005;-79
2023/01/31 10:17:26;;;;;;;15.07;7.95;;;;;;;;;;6189808;23;20001;-79
2023/01/31 10:19:53;;;;;;;;;;;;;;;;;;6190166;23;19997;-79
2023/01/31 10:22:25;;;;;;;12.07;6.03;;;;;;;;;;6188534;23;19979;-80
2023/01/31 10:24:57;;;;;;;14.82;7.43;;;;;;;;;;6196017;23;20005;-82
2023/01/31 10:27:44;;;;;;;23.40;9.02;;;;;;;;;;6196746;23;19997;-79
2023/01/31 10:30:24;;;;;;;12.25;6.35;;;;;;;;;;6201974;23;20027;-77
2023/01/31 10:32:55;;;;;;;13.88;6.70;;;;;;;;;;6179807;23;20064;-79
2023/01/31 10:35:24;;;;;;;17.02;7.93;;;;;;;;;;6176255;23;20005;-78
2023/01/31 10:37:56;;;;;;;23.27;8.13;;;;;;;;;;6203125;23;19997;-79
2023/01/31 10:40:35;;;;;;;14.75;7.07;;;;;;;;;;6169881;23;20271;-78
2023/01/31 10:43:32;;;;;;;30.50;11.30;;;;;;;;;;6175645;23;20001;-79
2023/01/31 10:46:01;;;;;;;17.38;7.22;;;;;;;;;;6189669;23;20020;-80
2023/01/31 10:48:36;;;;;;;10.70;5.53;;;;;;;;;;6189862;23;20001;-78
2023/01/31 10:51:07;;;;;;;7.85;4.47;;;;;;;;;;6186886;23;20001;-78
2023/01/31 10:53:49;;;;;;;38.45;17.48;;;;;;;;;;6185332;23;20016;-83
2023/01/31 10:56:29;;;;;;;10.68;5.20;;;;;;;;;;6185895;23;20005;-83
2023/01/31 10:58:55;;;;;;;13.15;6.63;;;;;;;;;;6185754;23;20012;-84
2023/01/31 11:01:21;;;;;;;9.70;5.13;;;;;;;;;;6183767;23;20009;-82
2023/01/31 11:03:51;;;;;;;5.95;3.83;;;;;;;;;;6159589;23;20070;-85
2023/01/31 11:06:17;;;;;;;9.43;4.82;;;;;;;;;;6188187;23;20005;-83
2023/01/31 11:08:50;;;;;;;12.02;4.50;;;;;;;;;;6188760;23;20036;-82
2023/01/31 11:11:20;;;;;;;13.30;4.43;;;;;;;;;;6187170;23;20027;-82
2023/01/31 11:13:59;;;;;;;8.68;4.13;;;;;;;;;;6183226;23;20394;-82
2023/01/31 11:16:37;;;;;;;13.00;6.57;;;;;;;;;;6184361;23;20452;-82
2023/01/31 11:19:21;;;;;;;10.40;4.85;;;;;;;;;;6184764;23;20344;-85
2023/01/31 11:21:50;;;;;;;18.38;7.22;;;;;;;;;;6184289;23;20009;-83
2023/01/31 11:24:23;;;;;;;21.35;7.28;;;;;;;;;;6187290;23;20005;-81
2023/01/31 11:27:25;;;;;;;20.88;9.98;;;;;;;;;;6185253;23;20005;-82
2023/01/31 11:29:53;;;;;;;11.40;5.00;;;;;;;;;;6183525;23;20012;-82
2023/01/31 11:32:25;;;;;;;18.45;6.13;;;;;;;;;;6184356;23;20080;-82
2023/01/31 11:35:05;;;;;;;16.73;6.50;;;;;;;;;;6185202;23;20040;-81
2023/01/31 11:37:31;;;;;;;;;;;;;;;;;;6186562;23;20006;-83
2023/01/31 11:40:00;;;;;;;15.98;7.05;;;;;;;;;;6185511;23;19908;-83
2023/01/31 11:42:26;;;;;;;16.10;5.38;;;;;;;;;;6185066;23;20001;-82
2023/01/31 11:45:16;;;;;;;12.35;5.10;;;;;;;;;;6181595;23;19997;-81
2023/01/31 11:47:44;;;;;;;12.85;6.90;;;;;;;;;;6183132;23;20343;-81
2023/01/31 11:50:36;;;;;;;14.57;5.90;;;;;;;;;;6182308;23;20100;-80
2023/01/31 11:53:21;;;;;;;13.45;5.90;;;;;;;;;;6165894;23;20017;-78
2023/01/31 11:55:48;;;;;;;12.27;6.50;;;;;;;;;;6182985;23;20028;-77
2023/01/31 11:58:23;;;;;;;15.93;7.07;;;;;;;;;;6182458;23;20458;-78
2023/01/31 12:01:21;;;;;;;14.52;6.22;;;;;;;;;;6181421;23;20001;-79
2023/01/31 12:04:00;;;;;;;11.43;6.53;;;;;;;;;;6184331;23;20037;-77
2023/01/31 12:06:29;;;;;;;16.45;6.75;;;;;;;;;;6184918;23;20009;-76
2023/01/31 12:08:56;;;;;;;15.90;7.30;;;;;;;;;;6185593;23;20959;-78
2023/01/31 12:11:27;;;;;;;18.15;8.57;;;;;;;;;;6184366;23;20015;-78
2023/01/31 12:14:15;;;;;;;16.67;6.07;;;;;;;;;;6182853;23;20001;-78
2023/01/31 12:16:41;;;;;;;14.35;7.43;;;;;;;;;;6182419;23;20016;-82
2023/01/31 12:19:13;;;;;;;15.60;5.55;;;;;;;;;;6183479;23;20025;-80
2023/01/31 12:22:04;;;;;;;11.25;5.20;;;;;;;;;;6184295;23;20009;-79
2023/01/31 12:24:48;;;;;;;;;;;;;;;;;;6182266;23;20659;-77
2023/01/31 12:27:33;;;;;;;13.45;5.38;;;;;;;;;;6185144;23;20229;-77
2023/01/31 12:30:11;;;;;;;13.70;5.35;;;;;;;;;;6185582;23;20071;-75
2023/01/31 12:32:42;;;;;;;15.07;6.88;;;;;;;;;;6183553;23;20037;-77
2023/01/31 12:35:12;;;;;;;12.88;6.70;;;;;;;;;;6182473;23;20005;-78
2023/01/31 12:37:45;;;;;;;14.70;5.55;;;;;;;;;;6182898;23;19997;-78
2023/01/31 12:40:13;;;;;;;21.23;7.18;;;;;;;;;;6182092;23;20425;-79
2023/01/31 12:42:45;;;;;;;20.17;7.35;;;;;;;;;;6182325;23;19997;-78
2023/01/31 12:45:35;;;;;;;17.58;7.20;;;;;;;;;;6156188;23;20349;-77
2023/01/31 12:48:16;;;;;;;21.20;6.10;;;;;;;;;;6180602;23;20012;-77
2023/01/31 12:50:59;;;;;;;;;;;;;;;;;;6181959;23;20025;-78
2023/01/31 12:54:15;;;;;;;13.27;5.47;;;;;;;;;;6182423;23;19935;-79
2023/01/31 12:57:16;;;;;;;16.00;5.93;;;;;;;;;;6155690;23;20012;-77
2023/01/31 12:59:55;;;;;;;19.45;7.65;;;;;;;;;;6180794;23;20001;-78
2023/01/31 13:02:53;;;;;;;34.72;12.48;;;;;;;;;;6183952;23;20009;-78
2023/01/31 13:05:32;;;;;;;46.10;16.60;;;;;;;;;;6139453;23;20005;-77
2023/01/31 13:08:24;;;;;;;38.27;13.83;;;;;;;;;;6184398;23;20009;-77
2023/01/31 13:11:11;;;;;;;19.38;7.00;;;;;;;;;;6160303;23;20009;-77
2023/01/31 13:13:48;;;;;;;17.17;6.68;;;;;;;;;;6171948;23;20084;-78
2023/01/31 13:16:21;;;;;;;11.93;5.70;;;;;;;;;;6160485;23;20063;-77
2023/01/31 13:18:48;;;;;;;12.55;6.30;;;;;;;;;;6182907;23;20001;-76
2023/01/31 13:21:16;;;;;;;18.58;6.78;;;;;;;;;;6158838;23;20084;-77
2023/01/31 13:23:44;;;;;;;12.98;6.30;;;;;;;;;;6158564;23;20012;-77
2023/01/31 13:26:19;;;;;;;13.38;5.53;;;;;;;;;;6161098;23;20030;-78
2023/01/31 13:29:04;;;;;;;14.63;6.18;;;;;;;;;;6185426;23;20036;-76
2023/01/31 13:31:33;;;;;;;10.50;5.07;;;;;;;;;;6182997;23;19997;-80
2023/01/31 13:34:09;;;;;;;17.52;6.03;;;;;;;;;;6135222;23;20072;-76
2023/01/31 13:36:37;;;;;;;24.83;10.32;;;;;;;;;;6160324;23;20071;-76
2023/01/31 13:39:35;;;;;;;13.23;6.07;;;;;;;;;;6158491;23;20005;-76
2023/01/31 13:42:00;;;;;;;15.15;6.35;;;;;;;;;;6171723;23;20009;-76
2023/01/31 13:44:25;;;;;;;20.20;6.57;;;;;;;;;;6184190;23;20463;-76
2023/01/31 13:47:07;;;;;;;14.95;6.65;;;;;;;;;;6184357;23;20035;-77
2023/01/31 13:49:46;;;;;;;18.80;6.00;;;;;;;;;;6182847;23;20476;-77
2023/01/31 13:52:13;;;;;;;14.25;5.72;;;;;;;;;;6182003;23;20017;-77
2023/01/31 13:54:45;;;;;;;15.38;5.60;;;;;;;;;;6182582;23;20345;-77
2023/01/31 13:57:23;;;;;;;11.45;5.65;;;;;;;;;;6183890;23;20321;-76
2023/01/31 13:59:57;;;;;;;8.80;4.53;;;;;;;;;;6157829;23;20045;-77
2023/01/31 14:02:23;;;;;;;20.85;5.53;;;;;;;;;;6182982;23;20391;-77
2023/01/31 14:04:48;;;;;;;13.13;5.47;;;;;;;;;;6159037;23;20075;-78
2023/01/31 14:07:18;;;;;;;49.22;15.48;;;;;;;;;;6185413;23;20008;-78
2023/01/31 14:09:50;;;;;;;13.40;5.30;;;;;;;;;;6184043;23;20024;-78
2023/01/31 14:12:15;;;;;;;14.93;6.78;;;;;;;;;;6185039;23;20612;-77
2023/01/31 14:14:51;;;;;;;40.53;19.52;;;;;;;;;;6185419;23;19997;-77
2023/01/31 14:17:20;;;;;;;19.15;9.30;;;;;;;;;;6185262;23;20056;-78
2023/01/31 14:19:45;;;;;;;51.45;25.73;;;;;;;;;;6185695;23;20408;-77
2023/01/31 14:22:24;;;;;;;41.83;20.23;;;;;;;;;;6185407;23;20016;-77
2023/01/31 14:24:54;;;;;;;15.27;7.15;;;;;;;;;;6184603;23;20012;-77
2023/01/31 14:27:26;;;;;;;14.70;5.63;;;;;;;;;;6184975;23;20432;-77
2023/01/31 14:30:08;;;;;;;18.08;7.13;;;;;;;;;;6183968;23;20001;-78
2023/01/31 14:32:48;;;;;;;17.02;6.70;;;;;;;;;;6183662;23;20436;-78
2023/01/31 14:35:13;;;;;;;16.55;7.32;;;;;;;;;;6185338;23;20376;-77
2023/01/31 14:38:00;;;;;;;10.10;5.28;;;;;;;;;;6184720;23;20083;-77
2023/01/31 14:40:26;;;;;;;16.85;6.25;;;;;;;;;;6183831;23;20005;-76
2023/01/31 14:42:58;;;;;;;22.23;7.13;;;;;;;;;;6183777;23;20091;-77
2023/01/31 14:46:01;;;;;;;13.73;6.63;;;;;;;;;;6185242;23;20005;-78
2023/01/31 14:48:37;;;;;;;15.77;5.15;;;;;;;;;;6183357;23;20027;-78
2023/01/31 14:51:16;;;;;;;29.67;9.20;;;;;;;;;;6183571;23;20001;-78
2023/01/31 14:54:03;;;;;;;20.50;6.47;;;;;;;;;;6184497;23;20083;-77